createdAt,value
2019-02-06T00:02:11.298Z,101917.56
2019-02-06T00:04:38.217Z,101917.14
2019-02-06T00:07:05.137Z,101921.49
2019-02-06T00:09:32.132Z,101913.42
2019-02-06T00:11:59.095Z,101920.41
2019-02-06T00:14:26.081Z,101917.17
2019-02-06T00:16:53.121Z,101920.77
2019-02-06T00:19:20.342Z,101913.12
2019-02-06T00:21:47.254Z,101920.63
2019-02-06T00:24:14.165Z,101922.03
2019-02-06T00:26:41.157Z,101925.58
2019-02-06T00:29:08.152Z,101918.44
2019-02-06T00:31:35.152Z,101907.59
2019-02-06T00:34:02.058Z,101909.64
2019-02-06T00:36:29.179Z,101898.98
2019-02-06T00:38:56.553Z,101896.88
2019-02-06T00:41:23.452Z,101898.17
2019-02-06T00:43:50.432Z,101900.45
2019-02-06T00:46:17.802Z,101912.04
2019-02-06T00:48:44.787Z,101898.12
2019-02-06T00:51:11.670Z,101901.42
2019-02-06T00:53:38.581Z,101896.31
2019-02-06T00:56:05.674Z,101895.80
2019-02-06T00:58:32.589Z,101891.42
2019-02-06T01:00:59.505Z,101888.81
2019-02-06T01:03:26.471Z,101886.44
2019-02-06T01:05:53.442Z,101883.20
2019-02-06T01:08:20.347Z,101878.41
2019-02-06T01:10:47.229Z,101875.91
2019-02-06T01:13:14.176Z,101877.27
2019-02-06T01:15:41.316Z,101880.63
2019-02-06T01:18:08.245Z,101879.73
2019-02-06T01:20:35.149Z,101877.61
2019-02-06T01:23:02.085Z,101882.56
2019-02-06T01:25:28.967Z,101882.77
2019-02-06T01:27:55.908Z,101882.94
2019-02-06T01:30:24.463Z,101886.00
2019-02-06T01:32:51.420Z,101883.95
2019-02-06T01:35:18.439Z,101870.14
2019-02-06T01:37:45.683Z,101867.02
2019-02-06T01:40:15.342Z,101863.84
2019-02-06T01:42:42.270Z,101867.66
2019-02-06T01:45:10.361Z,101865.85
2019-02-06T01:47:37.311Z,101870.66
2019-02-06T01:50:05.621Z,101866.31
2019-02-06T01:52:32.858Z,101867.98
2019-02-06T01:54:59.792Z,101861.77
2019-02-06T01:57:26.731Z,101860.19
2019-02-06T01:59:53.629Z,101862.52
2019-02-06T02:02:20.655Z,101860.29
2019-02-06T02:04:47.616Z,101855.67
2019-02-06T02:07:14.528Z,101862.59
2019-02-06T02:09:41.446Z,101862.09
2019-02-06T02:12:08.660Z,101857.90
2019-02-06T02:14:35.837Z,101860.48
2019-02-06T02:17:02.848Z,101860.10
2019-02-06T02:19:29.778Z,101858.27
2019-02-06T02:21:56.686Z,101861.06
2019-02-06T02:24:23.614Z,101851.92
2019-02-06T02:26:50.510Z,101844.05
2019-02-06T02:29:17.421Z,101846.86
2019-02-06T02:31:44.437Z,101842.06
2019-02-06T02:34:11.347Z,101847.08
2019-02-06T02:36:38.241Z,101822.38
2019-02-06T02:39:07.378Z,101820.89
2019-02-06T02:41:34.271Z,101817.16
2019-02-06T02:44:01.180Z,101820.37
2019-02-06T02:46:28.134Z,101821.21
2019-02-06T02:48:55.550Z,101819.52
2019-02-06T02:51:22.541Z,101819.06
2019-02-06T02:53:49.468Z,101817.00
2019-02-06T02:56:16.482Z,101817.67
2019-02-06T02:58:43.443Z,101817.13
2019-02-06T03:01:35.634Z,101812.84
2019-02-06T03:04:07.426Z,101799.57
2019-02-06T03:06:34.332Z,101801.56
2019-02-06T03:09:01.358Z,101797.98
2019-02-06T03:11:28.248Z,101798.54
2019-02-06T03:13:55.189Z,101795.00
2019-02-06T03:16:22.264Z,101775.14
2019-02-06T03:18:49.518Z,101774.45
2019-02-06T03:21:16.640Z,101776.43
2019-02-06T03:23:43.608Z,101775.92
2019-02-06T03:26:10.594Z,101769.81
2019-02-06T03:28:37.573Z,101765.46
2019-02-06T03:31:04.508Z,101765.13
2019-02-06T03:33:31.454Z,101773.52
2019-02-06T03:35:58.417Z,101760.88
2019-02-06T03:38:25.360Z,101758.03
2019-02-06T03:40:52.337Z,101751.41
2019-02-06T03:43:19.277Z,101758.39
2019-02-06T03:45:46.234Z,101745.80
2019-02-06T03:48:13.156Z,101741.72
2019-02-06T03:50:40.123Z,101730.88
2019-02-06T03:53:07.050Z,101728.63
2019-02-06T03:55:34.010Z,101722.48
2019-02-06T03:58:00.944Z,101720.41
2019-02-06T04:00:27.919Z,101716.55
2019-02-06T04:02:54.865Z,101716.13
2019-02-06T04:05:21.848Z,101719.84
2019-02-06T04:07:48.781Z,101708.75
2019-02-06T04:10:15.792Z,101711.99
2019-02-06T04:12:42.717Z,101712.41
2019-02-06T04:15:10.508Z,101714.48
2019-02-06T04:17:37.427Z,101695.57
2019-02-06T04:20:05.349Z,101680.98
2019-02-06T04:22:32.296Z,101673.75
2019-02-06T04:24:59.249Z,101670.22
2019-02-06T04:27:26.166Z,101671.86
2019-02-06T04:29:53.121Z,101666.03
2019-02-06T04:32:23.258Z,101658.03
2019-02-06T04:34:48.876Z,101669.03
2019-02-06T04:37:15.867Z,101665.69
2019-02-06T04:39:42.799Z,101668.34
2019-02-06T04:42:09.763Z,101660.20
2019-02-06T04:44:36.684Z,101660.50
2019-02-06T04:47:03.845Z,101671.66
2019-02-06T04:49:30.779Z,101667.41
2019-02-06T04:51:58.044Z,101666.23
2019-02-06T04:54:25.060Z,101660.63
2019-02-06T04:56:52.012Z,101657.53
2019-02-06T04:59:18.958Z,101653.27
2019-02-06T05:01:46.133Z,101654.03
2019-02-06T05:04:13.065Z,101645.01
2019-02-06T05:06:40.143Z,101644.39
2019-02-06T05:09:07.405Z,101645.03
2019-02-06T05:11:34.812Z,101649.20
2019-02-06T05:14:01.785Z,101650.05
2019-02-06T05:16:29.332Z,101648.25
2019-02-06T05:18:56.275Z,101649.06
2019-02-06T05:21:23.259Z,101643.44
2019-02-06T05:23:50.260Z,101640.13
2019-02-06T05:26:17.225Z,101656.10
2019-02-06T05:28:44.170Z,101646.55
2019-02-06T05:31:11.517Z,101637.44
2019-02-06T05:33:38.430Z,101637.19
2019-02-06T05:36:05.447Z,101637.97
2019-02-06T05:38:32.400Z,101634.70
2019-02-06T05:40:59.336Z,101635.09
2019-02-06T05:43:26.283Z,101636.91
2019-02-06T05:45:53.227Z,101648.34
2019-02-06T05:48:20.155Z,101628.67
2019-02-06T05:50:47.466Z,101630.05
2019-02-06T05:53:14.478Z,101631.44
2019-02-06T05:55:41.401Z,101616.45
2019-02-06T05:58:08.367Z,101620.41
2019-02-06T06:00:42.029Z,101613.39
2019-02-06T06:03:08.991Z,101612.58
2019-02-06T06:05:35.917Z,101603.67
2019-02-06T06:08:02.871Z,101602.27
2019-02-06T06:10:29.790Z,101599.61
2019-02-06T06:12:56.764Z,101592.72
2019-02-06T06:15:23.727Z,101589.22
2019-02-06T06:17:51.107Z,101589.13
2019-02-06T06:20:18.081Z,101585.80
2019-02-06T06:22:45.638Z,101591.13
2019-02-06T06:25:14.148Z,101584.31
2019-02-06T06:27:41.094Z,101585.73
2019-02-06T06:30:10.425Z,101581.09
2019-02-06T06:32:37.349Z,101585.06
2019-02-06T06:35:05.155Z,101588.14
2019-02-06T06:37:32.101Z,101588.64
2019-02-06T06:39:59.040Z,101577.98
2019-02-06T06:42:26.034Z,101580.25
2019-02-06T06:44:52.968Z,101568.97
2019-02-06T06:47:20.326Z,101573.03
2019-02-06T06:49:47.272Z,101579.55
2019-02-06T06:52:14.243Z,101579.03
2019-02-06T06:54:41.171Z,101578.66
2019-02-06T06:57:08.435Z,101573.70
2019-02-06T06:59:35.440Z,101579.80
2019-02-06T07:02:02.458Z,101574.81
2019-02-06T07:04:29.423Z,101581.25
2019-02-06T07:06:56.538Z,101577.73
2019-02-06T07:09:24.233Z,101572.73
2019-02-06T07:11:51.175Z,101582.27
2019-02-06T07:14:18.186Z,101590.63
2019-02-06T07:16:45.183Z,101584.16
2019-02-06T07:19:12.157Z,101581.77
2019-02-06T07:21:39.090Z,101583.33
2019-02-06T07:24:06.346Z,101573.60
2019-02-06T07:26:33.351Z,101573.33
2019-02-06T07:29:00.277Z,101572.88
2019-02-06T07:31:27.219Z,101569.45
2019-02-06T07:33:54.196Z,101580.99
2019-02-06T07:36:21.233Z,101576.09
2019-02-06T07:38:48.201Z,101580.55
2019-02-06T07:41:15.189Z,101574.09
2019-02-06T07:43:43.562Z,101569.29
2019-02-06T07:46:10.523Z,101574.39
2019-02-06T07:48:37.635Z,101570.16
2019-02-06T07:51:04.669Z,101565.95
2019-02-06T07:53:31.674Z,101566.17
2019-02-06T07:55:58.612Z,101571.91
2019-02-06T07:58:25.609Z,101573.20
2019-02-06T08:00:52.553Z,101574.22
2019-02-06T08:03:19.740Z,101576.01
2019-02-06T08:05:46.663Z,101566.34
2019-02-06T08:08:13.664Z,101565.06
2019-02-06T08:10:40.637Z,101562.83
2019-02-06T08:13:07.784Z,101562.26
2019-02-06T08:15:34.793Z,101560.18
2019-02-06T08:18:01.786Z,101568.41
2019-02-06T08:20:28.938Z,101565.23
2019-02-06T08:22:55.873Z,101557.20
2019-02-06T08:25:22.880Z,101554.98
2019-02-06T08:27:49.811Z,101552.59
2019-02-06T08:30:19.849Z,101556.59
2019-02-06T08:32:46.801Z,101555.00
2019-02-06T08:35:13.795Z,101546.72
2019-02-06T08:37:40.790Z,101550.09
2019-02-06T08:40:09.750Z,101544.34
2019-02-06T08:42:36.795Z,101552.12
2019-02-06T08:45:04.887Z,101542.70
2019-02-06T08:47:31.848Z,101540.30
2019-02-06T08:49:58.802Z,101535.23
2019-02-06T08:52:25.780Z,101532.38
2019-02-06T08:54:52.699Z,101524.39
2019-02-06T08:57:19.939Z,101528.70
2019-02-06T08:59:47.024Z,101515.44
2019-02-06T09:02:13.962Z,101521.00
2019-02-06T09:04:40.949Z,101521.63
2019-02-06T09:07:07.934Z,101533.33
2019-02-06T09:09:34.871Z,101526.05
2019-02-06T09:12:01.820Z,101535.30
2019-02-06T09:14:28.771Z,101534.57
2019-02-06T09:16:56.021Z,101539.07
2019-02-06T09:19:22.951Z,101553.97
2019-02-06T09:21:49.901Z,101544.81
2019-02-06T09:24:16.812Z,101552.45
2019-02-06T09:26:43.762Z,101546.06
2019-02-06T09:29:10.670Z,101544.98
2019-02-06T09:31:37.622Z,101548.48
2019-02-06T09:34:04.610Z,101549.27
2019-02-06T09:36:32.061Z,101558.81
2019-02-06T09:39:10.848Z,101553.28
2019-02-06T09:41:27.834Z,101549.78
2019-02-06T09:43:54.785Z,101544.41
2019-02-06T09:46:21.716Z,101554.78
2019-02-06T09:48:48.694Z,101543.30
2019-02-06T09:51:15.640Z,101538.36
2019-02-06T09:53:42.657Z,101542.25
2019-02-06T09:56:09.704Z,101538.78
2019-02-06T09:58:36.659Z,101542.08
2019-02-06T10:01:03.587Z,101545.14
2019-02-06T10:03:30.548Z,101541.78
2019-02-06T10:05:57.516Z,101546.13
2019-02-06T10:08:24.470Z,101538.02
2019-02-06T10:10:51.414Z,101536.95
2019-02-06T10:13:18.539Z,101535.28
2019-02-06T10:15:45.474Z,101538.71
2019-02-06T10:18:12.463Z,101531.49
2019-02-06T10:20:48.329Z,101530.64
2019-02-06T10:23:15.481Z,101530.69
2019-02-06T10:25:42.672Z,101531.13
2019-02-06T10:28:09.769Z,101529.83
2019-02-06T10:30:40.199Z,101529.63
2019-02-06T10:33:07.278Z,101523.14
2019-02-06T10:35:34.201Z,101520.13
2019-02-06T10:38:01.159Z,101516.21
2019-02-06T10:40:28.474Z,101525.75
2019-02-06T10:42:55.457Z,101432.39
2019-02-06T10:45:22.455Z,101516.70
2019-02-06T10:47:49.379Z,101525.50
2019-02-06T10:50:18.767Z,101522.83
2019-02-06T10:52:48.221Z,101523.74
2019-02-06T10:55:15.294Z,101522.44
2019-02-06T10:57:42.265Z,101515.02
2019-02-06T11:00:13.990Z,101516.81
2019-02-06T11:02:41.039Z,101515.50
2019-02-06T11:05:08.639Z,101511.19
2019-02-06T11:07:35.697Z,101504.69
2019-02-06T11:10:03.261Z,101504.70
2019-02-06T11:12:30.357Z,101506.05
2019-02-06T11:14:57.332Z,101493.03
2019-02-06T11:17:24.261Z,101493.06
2019-02-06T11:19:51.232Z,101490.45
2019-02-06T11:22:18.182Z,101483.97
2019-02-06T11:24:45.662Z,101489.16
2019-02-06T11:27:12.664Z,101482.25
2019-02-06T11:29:39.648Z,101481.37
2019-02-06T11:32:06.594Z,101477.06
2019-02-06T11:34:33.547Z,101482.27
2019-02-06T11:37:00.606Z,101471.00
2019-02-06T11:39:27.594Z,101477.05
2019-02-06T11:41:54.547Z,101470.55
2019-02-06T11:44:21.489Z,101474.47
2019-02-06T11:46:48.468Z,101468.39
2019-02-06T11:49:16.541Z,101460.16
2019-02-06T11:51:43.476Z,101461.88
2019-02-06T11:54:10.437Z,101450.60
2019-02-06T11:56:37.370Z,101447.55
2019-02-06T11:59:04.558Z,101450.16
2019-02-06T12:01:36.249Z,101441.06
2019-02-06T12:04:03.659Z,101441.47
2019-02-06T12:06:30.965Z,101438.44
2019-02-06T12:08:57.985Z,101434.52
2019-02-06T12:11:25.184Z,101443.23
2019-02-06T12:13:52.173Z,101434.94
2019-02-06T12:16:19.432Z,101435.38
2019-02-06T12:18:46.563Z,101434.48
2019-02-06T12:21:13.627Z,101431.47
2019-02-06T12:23:40.690Z,101433.16
2019-02-06T12:26:07.921Z,101421.91
2019-02-06T12:28:35.358Z,101417.97
2019-02-06T12:31:02.737Z,101417.08
2019-02-06T12:33:29.870Z,101417.97
2019-02-06T12:35:58.140Z,101401.44
2019-02-06T12:38:25.462Z,101404.50
2019-02-06T12:40:52.458Z,101394.47
2019-02-06T12:43:19.386Z,101394.06
2019-02-06T12:45:46.775Z,101393.63
2019-02-06T12:48:14.034Z,101394.91
2019-02-06T12:50:42.120Z,101392.27
2019-02-06T12:53:09.079Z,101391.84
2019-02-06T12:55:37.218Z,101390.94
2019-02-06T12:58:06.660Z,101384.85
2019-02-06T13:00:34.354Z,101377.91
2019-02-06T13:03:01.429Z,101378.28
2019-02-06T13:05:30.008Z,101377.39
2019-02-06T13:07:57.763Z,101375.63
2019-02-06T13:10:33.420Z,101368.63
2019-02-06T13:12:54.536Z,101378.15
2019-02-06T13:15:21.540Z,101362.85
2019-02-06T13:17:49.150Z,101375.45
2019-02-06T13:20:21.011Z,101358.14
2019-02-06T13:22:48.256Z,101362.91
2019-02-06T13:25:15.558Z,101354.59
2019-02-06T13:27:42.675Z,101349.83
2019-02-06T13:30:15.645Z,101346.22
2019-02-06T13:32:42.904Z,101351.86
2019-02-06T13:35:11.492Z,101346.98
2019-02-06T13:37:40.786Z,101347.05
2019-02-06T13:40:11.433Z,101343.52
2019-02-06T13:42:38.904Z,101340.84
2019-02-06T13:45:09.506Z,101335.22
2019-02-06T13:47:36.536Z,101330.77
2019-02-06T13:50:05.964Z,101329.92
2019-02-06T13:52:32.963Z,101326.46
2019-02-06T13:54:59.986Z,101320.80
2019-02-06T13:57:33.887Z,101323.20
2019-02-06T13:59:55.858Z,101317.33
2019-02-06T14:02:23.328Z,101317.83
2019-02-06T14:04:50.333Z,101316.56
2019-02-06T14:07:17.761Z,101311.72
2019-02-06T14:09:44.722Z,101310.83
2019-02-06T14:12:13.528Z,101311.19
2019-02-06T14:14:40.676Z,101304.64
2019-02-06T14:17:07.623Z,101304.46
2019-02-06T14:19:34.578Z,101302.33
2019-02-06T14:22:01.648Z,101302.83
2019-02-06T14:24:53.105Z,101301.17
2019-02-06T14:27:51.507Z,101299.00
2019-02-06T14:30:45.363Z,101290.78
2019-02-06T14:33:42.025Z,101287.23
2019-02-06T14:36:27.505Z,101279.90
2019-02-06T14:39:20.189Z,101274.32
2019-02-06T14:42:28.132Z,101267.17
2019-02-06T14:45:37.621Z,101265.10
2019-02-06T14:48:18.078Z,101264.63
2019-02-06T14:51:00.637Z,101260.86
2019-02-06T14:54:05.387Z,101262.48
2019-02-06T14:57:18.346Z,101273.02
2019-02-06T15:00:42.505Z,101264.69
2019-02-06T15:03:28.837Z,101260.80
2019-02-06T15:06:22.558Z,101256.41
2019-02-06T15:09:11.689Z,101258.55
2019-02-06T15:12:10.787Z,101255.55
2019-02-06T15:15:28.941Z,101258.22
2019-02-06T15:18:52.797Z,101252.11
2019-02-06T15:22:19.761Z,101245.20
2019-02-06T15:25:18.195Z,101238.17
2019-02-06T15:28:07.438Z,101239.83
2019-02-06T15:31:16.542Z,101231.23
2019-02-06T15:33:54.345Z,101229.04
2019-02-06T15:37:05.994Z,101226.05
2019-02-06T15:40:16.679Z,101227.70
2019-02-06T15:43:31.319Z,101221.30
2019-02-06T15:46:33.677Z,101213.51
2019-02-06T15:49:27.381Z,101213.95
2019-02-06T15:52:32.423Z,101213.45
2019-02-06T15:55:53.093Z,101216.47
2019-02-06T15:58:44.168Z,101215.55
2019-02-06T16:01:57.616Z,101210.98
2019-02-06T16:05:43.632Z,101218.34
2019-02-06T16:08:34.825Z,101218.37
2019-02-06T16:11:15.264Z,101214.98
2019-02-06T16:14:21.080Z,101216.70
2019-02-06T16:17:28.831Z,101218.34
2019-02-06T16:20:29.400Z,101207.13
2019-02-06T16:23:26.526Z,101203.22
2019-02-06T16:26:47.229Z,101197.97
2019-02-06T16:29:47.677Z,101188.04
2019-02-06T16:32:48.534Z,101191.54
2019-02-06T16:36:02.784Z,101186.81
2019-02-06T16:38:51.433Z,101189.39
2019-02-06T16:41:58.519Z,101180.36
2019-02-06T16:44:58.841Z,101182.13
2019-02-06T16:47:56.983Z,101184.34
2019-02-06T16:50:44.600Z,101184.42
2019-02-06T16:54:14.707Z,101180.17
2019-02-06T16:57:17.629Z,101187.47
2019-02-06T17:00:18.806Z,101177.14
2019-02-06T17:03:04.532Z,101176.73
2019-02-06T17:05:56.504Z,101174.98
2019-02-06T17:09:17.457Z,101177.95
2019-02-06T17:12:24.944Z,101175.00
2019-02-06T17:15:38.413Z,101172.47
2019-02-06T17:18:25.948Z,101170.38
2019-02-06T17:21:15.355Z,101164.30
2019-02-06T17:24:19.906Z,101163.88
2019-02-06T17:26:58.605Z,101166.52
2019-02-06T17:29:58.519Z,101164.36
2019-02-06T17:33:13.774Z,101162.70
2019-02-06T17:36:06.001Z,101170.88
2019-02-06T17:38:56.441Z,101157.45
2019-02-06T17:41:57.792Z,101159.20
2019-02-06T17:45:06.610Z,101160.07
2019-02-06T17:48:21.371Z,101156.62
2019-02-06T17:51:29.258Z,101149.31
2019-02-06T17:54:08.353Z,101149.72
2019-02-06T17:56:35.765Z,101142.77
2019-02-06T17:59:04.054Z,101143.27
2019-02-06T18:01:37.171Z,101135.84
2019-02-06T18:04:12.473Z,101120.59
2019-02-06T18:06:39.466Z,101120.22
2019-02-06T18:09:13.514Z,101108.56
2019-02-06T18:11:40.490Z,101112.03
2019-02-06T18:14:07.425Z,101116.81
2019-02-06T18:16:34.397Z,101113.77
2019-02-06T18:19:01.333Z,101115.98
2019-02-06T18:21:30.117Z,101113.02
2019-02-06T18:23:57.056Z,101114.75
2019-02-06T18:26:24.313Z,101113.91
2019-02-06T18:28:51.472Z,101116.10
2019-02-06T18:31:18.616Z,101110.92
2019-02-06T18:33:45.555Z,101111.30
2019-02-06T18:36:12.541Z,101104.39
2019-02-06T18:38:46.675Z,101103.08
2019-02-06T18:41:09.344Z,101105.71
2019-02-06T18:43:36.415Z,101114.84
2019-02-06T18:46:03.797Z,101112.28
2019-02-06T18:48:31.912Z,101112.73
2019-02-06T18:50:58.879Z,101108.45
2019-02-06T18:53:25.830Z,101105.40
2019-02-06T18:55:52.831Z,101108.45
2019-02-06T18:58:19.802Z,101109.77
2019-02-06T19:00:46.794Z,101109.77
2019-02-06T19:03:17.436Z,101107.19
2019-02-06T19:05:44.724Z,101107.19
2019-02-06T19:08:11.804Z,101103.73
2019-02-06T19:10:38.842Z,101103.75
2019-02-06T19:13:06.356Z,101100.27
2019-02-06T19:15:33.311Z,101091.17
2019-02-06T19:18:00.284Z,101089.89
2019-02-06T19:20:27.287Z,101088.57
2019-02-06T19:22:54.240Z,101078.56
2019-02-06T19:25:23.858Z,101079.42
2019-02-06T19:27:50.056Z,101081.17
2019-02-06T19:30:22.692Z,101075.13
2019-02-06T19:32:49.958Z,101072.09
2019-02-06T19:35:16.892Z,101066.86
2019-02-06T19:37:43.874Z,101059.05
2019-02-06T19:40:10.816Z,101050.82
2019-02-06T19:42:37.792Z,101046.52
2019-02-06T19:45:05.034Z,101043.03
2019-02-06T19:47:32.195Z,101033.03
2019-02-06T19:49:59.395Z,101035.23
2019-02-06T19:52:26.363Z,101033.84
2019-02-06T19:54:53.720Z,101033.05
2019-02-06T19:57:20.708Z,101034.77
2019-02-06T19:59:47.725Z,101037.36
2019-02-06T20:02:14.697Z,101031.73
2019-02-06T20:04:41.747Z,101032.16
2019-02-06T20:07:08.692Z,101026.50
2019-02-06T20:09:35.653Z,101033.44
2019-02-06T20:12:02.569Z,101026.47
2019-02-06T20:14:29.529Z,101027.79
2019-02-06T20:16:56.448Z,101024.36
2019-02-06T20:19:23.703Z,101024.73
2019-02-06T20:21:50.633Z,101020.44
2019-02-06T20:24:17.607Z,101017.34
2019-02-06T20:26:44.538Z,101024.23
2019-02-06T20:29:11.498Z,101029.91
2019-02-06T20:31:38.419Z,101032.05
2019-02-06T20:34:05.400Z,101040.77
2019-02-06T20:36:32.321Z,101018.12
2019-02-06T20:38:59.285Z,101018.12
2019-02-06T20:41:26.339Z,101018.14
2019-02-06T20:43:53.304Z,101011.27
2019-02-06T20:46:20.231Z,101003.94
2019-02-06T20:48:47.180Z,101004.34
2019-02-06T20:51:14.122Z,101003.03
2019-02-06T20:53:41.068Z,101001.80
2019-02-06T20:56:08.002Z,100998.80
2019-02-06T20:58:34.958Z,100993.16
2019-02-06T21:01:02.098Z,100983.56
2019-02-06T21:03:29.371Z,100982.70
2019-02-06T21:05:56.294Z,100981.91
2019-02-06T21:08:23.284Z,100978.42
2019-02-06T21:10:50.217Z,100984.05
2019-02-06T21:13:18.965Z,100978.47
2019-02-06T21:15:46.409Z,100979.80
2019-02-06T21:18:13.334Z,100980.66
2019-02-06T21:20:40.669Z,100977.20
2019-02-06T21:23:07.609Z,100983.25
2019-02-06T21:25:34.596Z,100985.00
2019-02-06T21:28:01.542Z,100977.58
2019-02-06T21:30:30.743Z,100967.17
2019-02-06T21:32:57.774Z,100969.25
2019-02-06T21:35:24.972Z,100965.87
2019-02-06T21:37:51.894Z,100957.23
2019-02-06T21:40:22.857Z,100954.64
2019-02-06T21:42:49.896Z,100949.80
2019-02-06T21:45:16.964Z,100943.68
2019-02-06T21:47:44.204Z,100943.78
2019-02-06T21:50:12.963Z,100949.01
2019-02-06T21:52:39.897Z,100949.67
2019-02-06T21:55:08.473Z,100912.66
2019-02-06T21:57:35.510Z,100948.92
2019-02-06T22:00:04.284Z,100949.88
2019-02-06T22:02:31.198Z,100937.27
2019-02-06T22:04:58.160Z,100940.27
2019-02-06T22:07:25.097Z,100935.47
2019-02-06T22:09:52.048Z,100937.68
2019-02-06T22:12:19.068Z,100921.59
2019-02-06T22:14:46.031Z,100923.38
2019-02-06T22:17:12.996Z,100911.66
2019-02-06T22:19:39.997Z,100909.11
2019-02-06T22:22:06.923Z,100903.39
2019-02-06T22:24:33.906Z,100905.19
2019-02-06T22:27:00.846Z,100906.48
2019-02-06T22:29:27.834Z,100906.88
2019-02-06T22:31:55.183Z,100901.73
2019-02-06T22:34:22.189Z,100893.41
2019-02-06T22:36:49.140Z,100899.52
2019-02-06T22:39:16.118Z,100900.42
2019-02-06T22:41:43.103Z,100894.34
2019-02-06T22:44:10.050Z,100902.00
2019-02-06T22:46:37.015Z,100896.38
2019-02-06T22:49:04.512Z,100893.92
2019-02-06T22:51:31.668Z,100893.11
2019-02-06T22:53:58.595Z,100883.56
2019-02-06T22:56:25.570Z,100887.52
2019-02-06T22:58:52.488Z,100882.73
2019-02-06T23:01:32.416Z,100880.47
2019-02-06T23:03:59.369Z,100876.25
2019-02-06T23:06:26.424Z,100874.48
2019-02-06T23:08:53.436Z,100866.27
2019-02-06T23:11:20.407Z,100868.35
2019-02-06T23:13:47.351Z,100866.97
2019-02-06T23:16:14.327Z,100862.27
2019-02-06T23:18:41.264Z,100857.48
2019-02-06T23:21:08.225Z,100854.46
2019-02-06T23:23:35.553Z,100850.20
2019-02-06T23:26:02.623Z,100844.19
2019-02-06T23:28:29.545Z,100838.56
2019-02-06T23:30:56.512Z,100838.07
2019-02-06T23:33:23.434Z,100834.15
2019-02-06T23:35:50.395Z,100831.59
2019-02-06T23:38:17.325Z,100827.70
2019-02-06T23:40:44.581Z,100819.87
2019-02-06T23:43:11.503Z,100812.98
2019-02-06T23:45:38.505Z,100808.17
2019-02-06T23:48:05.545Z,100807.36
2019-02-06T23:50:32.481Z,100797.34
2019-02-06T23:52:59.449Z,100795.58
2019-02-06T23:55:26.372Z,100786.20
2019-02-06T23:57:53.346Z,100781.38
